sensor_id;sensor_type;location;lat;lon;timestamp;temperature;humidity
7378;DHT22;3730;50.856;12.776;2023-07-09T00:02:27;23.60;1.00
7378;DHT22;3730;50.856;12.776;2023-07-09T00:07:30;23.60;1.00
7378;DHT22;3730;50.856;12.776;2023-07-09T00:09:57;23.50;1.00
7378;DHT22;3730;50.856;12.776;2023-07-09T00:12:24;23.50;1.00
7378;DHT22;3730;50.856;12.776;2023-07-09T00:17:23;23.40;1.00
7378;DHT22;3730;50.856;12.776;2023-07-09T00:19:51;23.40;1.00
7378;DHT22;3730;50.856;12.776;2023-07-09T00:22:18;23.40;1.00
7378;DHT22;3730;50.856;12.776;2023-07-09T00:24:45;23.40;1.00
7378;DHT22;3730;50.856;12.776;2023-07-09T00:27:12;23.30;1.00
7378;DHT22;3730;50.856;12.776;2023-07-09T00:29:38;23.30;1.00
7378;DHT22;3730;50.856;12.776;2023-07-09T00:32:10;23.20;1.00
7378;DHT22;3730;50.856;12.776;2023-07-09T00:34:36;23.10;1.00
7378;DHT22;3730;50.856;12.776;2023-07-09T00:39:28;23.10;1.00
7378;DHT22;3730;50.856;12.776;2023-07-09T00:59:18;22.90;1.00
7378;DHT22;3730;50.856;12.776;2023-07-09T01:04:16;22.70;1.00
7378;DHT22;3730;50.856;12.776;2023-07-09T01:06:45;22.80;1.00
7378;DHT22;3730;50.856;12.776;2023-07-09T01:09:13;22.70;1.00
7378;DHT22;3730;50.856;12.776;2023-07-09T01:11:38;22.60;1.00
7378;DHT22;3730;50.856;12.776;2023-07-09T01:14:07;22.70;1.00
7378;DHT22;3730;50.856;12.776;2023-07-09T01:21:31;22.50;1.00
7378;DHT22;3730;50.856;12.776;2023-07-09T02:52:10;21.70;1.00
7378;DHT22;3730;50.856;12.776;2023-07-09T03:01:55;21.40;1.00
7378;DHT22;3730;50.856;12.776;2023-07-09T03:09:13;21.40;1.00
7378;DHT22;3730;50.856;12.776;2023-07-09T03:11:39;21.30;1.00
7378;DHT22;3730;50.856;12.776;2023-07-09T03:14:05;21.20;1.00
7378;DHT22;3730;50.856;12.776;2023-07-09T03:16:32;21.30;1.00
7378;DHT22;3730;50.856;12.776;2023-07-09T03:18:59;21.30;1.00
7378;DHT22;3730;50.856;12.776;2023-07-09T03:21:26;21.20;1.00
7378;DHT22;3730;50.856;12.776;2023-07-09T03:23:53;21.10;1.00
7378;DHT22;3730;50.856;12.776;2023-07-09T03:26:19;21.00;1.00
7378;DHT22;3730;50.856;12.776;2023-07-09T03:33:37;21.00;1.00
7378;DHT22;3730;50.856;12.776;2023-07-09T03:38:30;20.90;1.00
7378;DHT22;3730;50.856;12.776;2023-07-09T03:43:22;20.90;1.00
7378;DHT22;3730;50.856;12.776;2023-07-09T03:48:15;20.80;1.00
7378;DHT22;3730;50.856;12.776;2023-07-09T03:50:42;20.80;1.00
7378;DHT22;3730;50.856;12.776;2023-07-09T03:55:34;20.80;1.00
7378;DHT22;3730;50.856;12.776;2023-07-09T04:00:28;20.90;1.00
7378;DHT22;3730;50.856;12.776;2023-07-09T04:02:54;20.90;1.00
7378;DHT22;3730;50.856;12.776;2023-07-09T04:07:48;20.90;1.00
7378;DHT22;3730;50.856;12.776;2023-07-09T04:15:06;20.90;1.00
7378;DHT22;3730;50.856;12.776;2023-07-09T04:17:33;20.90;1.00
7378;DHT22;3730;50.856;12.776;2023-07-09T04:19:58;20.90;1.00
7378;DHT22;3730;50.856;12.776;2023-07-09T04:24:50;21.00;1.00
7378;DHT22;3730;50.856;12.776;2023-07-09T04:27:18;21.00;1.00
7378;DHT22;3730;50.856;12.776;2023-07-09T04:32:14;21.10;1.00
7378;DHT22;3730;50.856;12.776;2023-07-09T04:37:15;21.20;1.00
7378;DHT22;3730;50.856;12.776;2023-07-09T04:39:44;21.10;1.00
7378;DHT22;3730;50.856;12.776;2023-07-09T04:42:15;21.20;1.00
7378;DHT22;3730;50.856;12.776;2023-07-09T04:44:41;21.30;1.00
7378;DHT22;3730;50.856;12.776;2023-07-09T04:49:33;21.30;1.00
7378;DHT22;3730;50.856;12.776;2023-07-09T04:51:59;21.30;1.00
7378;DHT22;3730;50.856;12.776;2023-07-09T04:54:26;21.30;1.00
7378;DHT22;3730;50.856;12.776;2023-07-09T04:56:52;21.40;1.00
7378;DHT22;3730;50.856;12.776;2023-07-09T04:59:18;21.30;1.00
7378;DHT22;3730;50.856;12.776;2023-07-09T05:01:44;21.30;1.00
7378;DHT22;3730;50.856;12.776;2023-07-09T05:04:10;21.30;1.00
7378;DHT22;3730;50.856;12.776;2023-07-09T05:06:35;21.40;1.00
7378;DHT22;3730;50.856;12.776;2023-07-09T05:09:01;21.50;1.00
7378;DHT22;3730;50.856;12.776;2023-07-09T05:11:27;21.40;1.00
7378;DHT22;3730;50.856;12.776;2023-07-09T05:13:52;21.40;1.00
7378;DHT22;3730;50.856;12.776;2023-07-09T05:18:45;21.60;1.00
7378;DHT22;3730;50.856;12.776;2023-07-09T05:23:37;21.60;1.00
7378;DHT22;3730;50.856;12.776;2023-07-09T05:28:30;21.60;1.00
7378;DHT22;3730;50.856;12.776;2023-07-09T05:30:56;21.70;1.00
7378;DHT22;3730;50.856;12.776;2023-07-09T05:33:21;21.70;1.00
7378;DHT22;3730;50.856;12.776;2023-07-09T05:35:47;21.70;1.00
7378;DHT22;3730;50.856;12.776;2023-07-09T05:38:14;21.80;1.00
7378;DHT22;3730;50.856;12.776;2023-07-09T05:40:40;21.90;1.00
7378;DHT22;3730;50.856;12.776;2023-07-09T05:43:06;22.00;1.00
7378;DHT22;3730;50.856;12.776;2023-07-09T05:47:58;21.80;1.00
7378;DHT22;3730;50.856;12.776;2023-07-09T05:50:24;21.90;1.00
7378;DHT22;3730;50.856;12.776;2023-07-09T05:52:50;22.10;1.00
7378;DHT22;3730;50.856;12.776;2023-07-09T05:55:16;22.20;1.00
7378;DHT22;3730;50.856;12.776;2023-07-09T05:57:41;22.20;1.00
7378;DHT22;3730;50.856;12.776;2023-07-09T06:00:07;22.20;1.00
7378;DHT22;3730;50.856;12.776;2023-07-09T06:07:25;22.50;1.00
7378;DHT22;3730;50.856;12.776;2023-07-09T06:09:51;22.60;1.00
7378;DHT22;3730;50.856;12.776;2023-07-09T06:41:32;23.50;1.00
7378;DHT22;3730;50.856;12.776;2023-07-09T06:44:05;23.50;1.00
7378;DHT22;3730;50.856;12.776;2023-07-09T06:46:31;23.70;1.00
7378;DHT22;3730;50.856;12.776;2023-07-09T06:48:56;23.70;1.00
7378;DHT22;3730;50.856;12.776;2023-07-09T06:51:22;23.80;1.00
7378;DHT22;3730;50.856;12.776;2023-07-09T06:53:47;23.90;1.00
7378;DHT22;3730;50.856;12.776;2023-07-09T06:56:16;24.00;1.00
7378;DHT22;3730;50.856;12.776;2023-07-09T06:58:41;24.10;1.00
7378;DHT22;3730;50.856;12.776;2023-07-09T07:01:07;24.30;1.00
7378;DHT22;3730;50.856;12.776;2023-07-09T07:03:35;24.30;1.00
7378;DHT22;3730;50.856;12.776;2023-07-09T07:06:01;24.30;1.00
7378;DHT22;3730;50.856;12.776;2023-07-09T07:08:26;24.40;1.00
7378;DHT22;3730;50.856;12.776;2023-07-09T07:25:45;24.50;1.00
7378;DHT22;3730;50.856;12.776;2023-07-09T07:28:11;25.10;1.00
7378;DHT22;3730;50.856;12.776;2023-07-09T07:30:37;25.10;1.00
7378;DHT22;3730;50.856;12.776;2023-07-09T07:33:02;25.30;1.00
7378;DHT22;3730;50.856;12.776;2023-07-09T07:40:20;25.30;1.00
7378;DHT22;3730;50.856;12.776;2023-07-09T07:42:46;25.50;1.00
7378;DHT22;3730;50.856;12.776;2023-07-09T07:45:12;25.60;1.00
7378;DHT22;3730;50.856;12.776;2023-07-09T07:47:38;25.60;1.00
7378;DHT22;3730;50.856;12.776;2023-07-09T07:50:05;25.70;1.00
7378;DHT22;3730;50.856;12.776;2023-07-09T07:52:31;25.70;1.00
7378;DHT22;3730;50.856;12.776;2023-07-09T07:54:57;25.80;1.00
7378;DHT22;3730;50.856;12.776;2023-07-09T07:59:52;25.90;1.00
7378;DHT22;3730;50.856;12.776;2023-07-09T08:02:17;26.00;1.00
7378;DHT22;3730;50.856;12.776;2023-07-09T08:04:43;26.10;1.00
7378;DHT22;3730;50.856;12.776;2023-07-09T08:07:10;26.10;1.00
7378;DHT22;3730;50.856;12.776;2023-07-09T08:09:36;26.20;1.00
7378;DHT22;3730;50.856;12.776;2023-07-09T08:12:02;26.20;1.00
7378;DHT22;3730;50.856;12.776;2023-07-09T08:14:34;26.20;1.00
7378;DHT22;3730;50.856;12.776;2023-07-09T08:17:00;26.30;1.00
7378;DHT22;3730;50.856;12.776;2023-07-09T08:26:44;26.30;1.00
7378;DHT22;3730;50.856;12.776;2023-07-09T08:29:09;26.60;1.00
7378;DHT22;3730;50.856;12.776;2023-07-09T08:31:35;26.60;1.00
7378;DHT22;3730;50.856;12.776;2023-07-09T08:34:01;26.70;1.00
7378;DHT22;3730;50.856;12.776;2023-07-09T08:36:27;26.80;1.00
7378;DHT22;3730;50.856;12.776;2023-07-09T08:38:53;26.80;1.00
7378;DHT22;3730;50.856;12.776;2023-07-09T09:37:12;26.90;1.00
7378;DHT22;3730;50.856;12.776;2023-07-09T09:39:38;28.10;1.00
7378;DHT22;3730;50.856;12.776;2023-07-09T09:42:10;28.10;1.00
7378;DHT22;3730;50.856;12.776;2023-07-09T09:44:36;28.20;1.00
7378;DHT22;3730;50.856;12.776;2023-07-09T09:49:43;28.20;1.00
7378;DHT22;3730;50.856;12.776;2023-07-09T09:52:14;28.40;1.00
7378;DHT22;3730;50.856;12.776;2023-07-09T09:59:42;28.40;1.00
7378;DHT22;3730;50.856;12.776;2023-07-09T10:02:22;28.50;1.00
7378;DHT22;3730;50.856;12.776;2023-07-09T10:04:49;28.60;1.00
7378;DHT22;3730;50.856;12.776;2023-07-09T10:18:13;28.60;1.00
7378;DHT22;3730;50.856;12.776;2023-07-09T10:20:48;28.90;1.00
7378;DHT22;3730;50.856;12.776;2023-07-09T11:17:15;29.10;1.00
7378;DHT22;3730;50.856;12.776;2023-07-09T11:19:47;30.50;1.00
7378;DHT22;3730;50.856;12.776;2023-07-09T11:22:21;30.60;1.00
7378;DHT22;3730;50.856;12.776;2023-07-09T11:24:48;30.70;1.00
7378;DHT22;3730;50.856;12.776;2023-07-09T11:27:22;30.80;1.00
7378;DHT22;3730;50.856;12.776;2023-07-09T11:30:03;31.00;1.00
7378;DHT22;3730;50.856;12.776;2023-07-09T11:32:46;31.20;1.00
7378;DHT22;3730;50.856;12.776;2023-07-09T11:35:49;31.30;1.00
7378;DHT22;3730;50.856;12.776;2023-07-09T11:38:20;31.40;1.00
7378;DHT22;3730;50.856;12.776;2023-07-09T11:40:48;31.40;1.00
7378;DHT22;3730;50.856;12.776;2023-07-09T11:43:29;31.60;1.00
7378;DHT22;3730;50.856;12.776;2023-07-09T11:46:03;31.70;1.00
7378;DHT22;3730;50.856;12.776;2023-07-09T11:48:32;31.90;1.00
7378;DHT22;3730;50.856;12.776;2023-07-09T11:51:08;31.90;1.00
7378;DHT22;3730;50.856;12.776;2023-07-09T11:56:08;32.10;1.00
7378;DHT22;3730;50.856;12.776;2023-07-09T11:58:33;32.10;1.00
7378;DHT22;3730;50.856;12.776;2023-07-09T12:01:00;32.30;1.00
7378;DHT22;3730;50.856;12.776;2023-07-09T12:03:34;32.10;1.00
7378;DHT22;3730;50.856;12.776;2023-07-09T12:06:23;32.10;1.00
7378;DHT22;3730;50.856;12.776;2023-07-09T12:11:31;32.20;1.00
7378;DHT22;3730;50.856;12.776;2023-07-09T16:27:40;32.50;1.00
7378;DHT22;3730;50.856;12.776;2023-07-09T16:30:27;35.20;1.00
7378;DHT22;3730;50.856;12.776;2023-07-09T16:32:57;35.00;1.00
7378;DHT22;3730;50.856;12.776;2023-07-09T16:35:26;34.90;1.00
7378;DHT22;3730;50.856;12.776;2023-07-09T16:37:52;34.70;1.00
7378;DHT22;3730;50.856;12.776;2023-07-09T16:40:23;34.70;1.00
7378;DHT22;3730;50.856;12.776;2023-07-09T16:42:50;34.60;1.00
7378;DHT22;3730;50.856;12.776;2023-07-09T16:45:18;34.50;1.00
7378;DHT22;3730;50.856;12.776;2023-07-09T16:47:45;34.40;1.00
7378;DHT22;3730;50.856;12.776;2023-07-09T16:50:15;34.40;1.00
7378;DHT22;3730;50.856;12.776;2023-07-09T17:14:50;33.90;1.00
7378;DHT22;3730;50.856;12.776;2023-07-09T17:17:19;33.50;1.00
7378;DHT22;3730;50.856;12.776;2023-07-09T17:19:45;33.40;1.00
7378;DHT22;3730;50.856;12.776;2023-07-09T17:41:50;33.30;1.00
7378;DHT22;3730;50.856;12.776;2023-07-09T17:44:21;32.30;1.00
7378;DHT22;3730;50.856;12.776;2023-07-09T17:49:22;32.10;1.00
7378;DHT22;3730;50.856;12.776;2023-07-09T18:36:26;31.90;1.00
7378;DHT22;3730;50.856;12.776;2023-07-09T18:38:51;30.30;1.00
7378;DHT22;3730;50.856;12.776;2023-07-09T18:41:17;30.20;1.00
7378;DHT22;3730;50.856;12.776;2023-07-09T18:53:33;30.10;1.00
7378;DHT22;3730;50.856;12.776;2023-07-09T18:56:00;29.80;1.00
7378;DHT22;3730;50.856;12.776;2023-07-09T18:58:27;29.70;1.00
7378;DHT22;3730;50.856;12.776;2023-07-09T19:00:54;29.60;1.00
7378;DHT22;3730;50.856;12.776;2023-07-09T19:03:22;29.60;1.00
7378;DHT22;3730;50.856;12.776;2023-07-09T19:05:49;29.50;1.00
7378;DHT22;3730;50.856;12.776;2023-07-09T19:08:21;29.40;1.00
7378;DHT22;3730;50.856;12.776;2023-07-09T19:10:47;29.40;1.00
7378;DHT22;3730;50.856;12.776;2023-07-09T19:13:13;29.30;1.00
7378;DHT22;3730;50.856;12.776;2023-07-09T19:15:40;29.30;1.00
7378;DHT22;3730;50.856;12.776;2023-07-09T19:18:14;29.20;1.00
7378;DHT22;3730;50.856;12.776;2023-07-09T19:20:42;29.20;1.00
7378;DHT22;3730;50.856;12.776;2023-07-09T19:23:13;29.10;1.00
7378;DHT22;3730;50.856;12.776;2023-07-09T19:25:39;29.10;1.00
7378;DHT22;3730;50.856;12.776;2023-07-09T19:28:05;29.00;1.00
7378;DHT22;3730;50.856;12.776;2023-07-09T19:30:30;29.00;1.00
7378;DHT22;3730;50.856;12.776;2023-07-09T19:32:58;28.90;1.00
7378;DHT22;3730;50.856;12.776;2023-07-09T19:35:26;28.90;1.00
7378;DHT22;3730;50.856;12.776;2023-07-09T19:37:52;28.80;1.00
7378;DHT22;3730;50.856;12.776;2023-07-09T19:45:21;28.60;1.00
7378;DHT22;3730;50.856;12.776;2023-07-09T19:47:50;28.60;1.00
7378;DHT22;3730;50.856;12.776;2023-07-09T19:50:31;28.40;1.00
7378;DHT22;3730;50.856;12.776;2023-07-09T19:53:00;28.40;1.00
7378;DHT22;3730;50.856;12.776;2023-07-09T19:55:27;28.30;1.00
7378;DHT22;3730;50.856;12.776;2023-07-09T19:57:55;28.30;1.00
7378;DHT22;3730;50.856;12.776;2023-07-09T20:00:22;28.30;1.00
7378;DHT22;3730;50.856;12.776;2023-07-09T20:02:49;28.20;1.00
7378;DHT22;3730;50.856;12.776;2023-07-09T20:07:46;28.00;1.00
7378;DHT22;3730;50.856;12.776;2023-07-09T20:10:12;28.00;1.00
7378;DHT22;3730;50.856;12.776;2023-07-09T20:12:38;28.00;1.00
7378;DHT22;3730;50.856;12.776;2023-07-09T20:15:27;27.90;1.00
7378;DHT22;3730;50.856;12.776;2023-07-09T20:17:56;27.80;1.00
7378;DHT22;3730;50.856;12.776;2023-07-09T20:20:24;27.80;1.00
7378;DHT22;3730;50.856;12.776;2023-07-09T20:22:50;27.70;1.00
7378;DHT22;3730;50.856;12.776;2023-07-09T20:25:22;27.70;1.00
7378;DHT22;3730;50.856;12.776;2023-07-09T20:27:49;27.70;1.00
7378;DHT22;3730;50.856;12.776;2023-07-09T20:30:16;27.70;1.00
7378;DHT22;3730;50.856;12.776;2023-07-09T20:32:44;27.70;1.00
7378;DHT22;3730;50.856;12.776;2023-07-09T20:35:19;27.60;1.00
7378;DHT22;3730;50.856;12.776;2023-07-09T20:37:46;27.60;1.00
7378;DHT22;3730;50.856;12.776;2023-07-09T20:40:15;27.50;1.00
7378;DHT22;3730;50.856;12.776;2023-07-09T20:42:41;27.50;1.00
7378;DHT22;3730;50.856;12.776;2023-07-09T20:45:17;27.60;1.00
7378;DHT22;3730;50.856;12.776;2023-07-09T20:47:46;27.40;1.00
7378;DHT22;3730;50.856;12.776;2023-07-09T20:50:13;27.50;1.00
7378;DHT22;3730;50.856;12.776;2023-07-09T20:52:39;27.50;1.00
7378;DHT22;3730;50.856;12.776;2023-07-09T20:55:05;27.40;1.00
7378;DHT22;3730;50.856;12.776;2023-07-09T20:57:34;27.40;1.00
7378;DHT22;3730;50.856;12.776;2023-07-09T21:00:00;27.30;1.00
7378;DHT22;3730;50.856;12.776;2023-07-09T21:02:26;27.40;1.00
7378;DHT22;3730;50.856;12.776;2023-07-09T21:04:53;27.30;1.00
7378;DHT22;3730;50.856;12.776;2023-07-09T21:07:23;29.60;1.00
7378;DHT22;3730;50.856;12.776;2023-07-09T21:09:49;27.30;1.00
7378;DHT22;3730;50.856;12.776;2023-07-09T21:12:16;27.30;1.00
7378;DHT22;3730;50.856;12.776;2023-07-09T21:14:43;27.30;1.00
7378;DHT22;3730;50.856;12.776;2023-07-09T21:17:16;27.30;1.00
7378;DHT22;3730;50.856;12.776;2023-07-09T21:19:42;27.20;1.00
7378;DHT22;3730;50.856;12.776;2023-07-09T21:22:13;27.20;1.00
7378;DHT22;3730;50.856;12.776;2023-07-09T21:24:44;27.20;1.00
7378;DHT22;3730;50.856;12.776;2023-07-09T21:27:10;27.20;1.00
7378;DHT22;3730;50.856;12.776;2023-07-09T21:29:36;27.20;1.00
7378;DHT22;3730;50.856;12.776;2023-07-09T21:32:04;27.20;1.00
7378;DHT22;3730;50.856;12.776;2023-07-09T21:34:32;27.10;1.00
7378;DHT22;3730;50.856;12.776;2023-07-09T21:37:12;27.10;1.00
7378;DHT22;3730;50.856;12.776;2023-07-09T21:39:40;27.10;1.00
7378;DHT22;3730;50.856;12.776;2023-07-09T21:42:06;27.10;1.00
7378;DHT22;3730;50.856;12.776;2023-07-09T21:49:29;27.10;1.00
7378;DHT22;3730;50.856;12.776;2023-07-09T21:51:56;27.00;1.00
7378;DHT22;3730;50.856;12.776;2023-07-09T21:54:30;26.90;1.00
7378;DHT22;3730;50.856;12.776;2023-07-09T21:56:56;26.90;1.00
7378;DHT22;3730;50.856;12.776;2023-07-09T21:59:23;26.90;1.00
7378;DHT22;3730;50.856;12.776;2023-07-09T22:01:53;26.90;1.00
7378;DHT22;3730;50.856;12.776;2023-07-09T22:04:29;26.90;1.00
7378;DHT22;3730;50.856;12.776;2023-07-09T22:06:55;26.80;1.00
7378;DHT22;3730;50.856;12.776;2023-07-09T22:09:22;26.80;1.00
7378;DHT22;3730;50.856;12.776;2023-07-09T22:11:49;26.80;1.00
7378;DHT22;3730;50.856;12.776;2023-07-09T22:14:18;26.70;1.00
7378;DHT22;3730;50.856;12.776;2023-07-09T22:26:33;26.70;1.00
7378;DHT22;3730;50.856;12.776;2023-07-09T22:29:00;26.60;1.00
7378;DHT22;3730;50.856;12.776;2023-07-09T22:31:27;26.60;1.00
7378;DHT22;3730;50.856;12.776;2023-07-09T22:33:54;26.60;1.00
7378;DHT22;3730;50.856;12.776;2023-07-09T22:36:19;26.60;1.00
7378;DHT22;3730;50.856;12.776;2023-07-09T22:38:45;26.50;1.00
7378;DHT22;3730;50.856;12.776;2023-07-09T22:41:10;26.50;1.00
7378;DHT22;3730;50.856;12.776;2023-07-09T22:43:36;26.50;1.00
7378;DHT22;3730;50.856;12.776;2023-07-09T22:46:02;26.50;1.00
7378;DHT22;3730;50.856;12.776;2023-07-09T22:48:29;26.50;1.00
7378;DHT22;3730;50.856;12.776;2023-07-09T22:50:55;26.40;1.00
7378;DHT22;3730;50.856;12.776;2023-07-09T22:53:22;26.40;1.00
7378;DHT22;3730;50.856;12.776;2023-07-09T23:00:53;26.40;1.00
7378;DHT22;3730;50.856;12.776;2023-07-09T23:06:20;26.20;1.00
7378;DHT22;3730;50.856;12.776;2023-07-09T23:08:47;26.20;1.00
7378;DHT22;3730;50.856;12.776;2023-07-09T23:11:25;26.10;1.00
7378;DHT22;3730;50.856;12.776;2023-07-09T23:13:52;26.00;1.00
7378;DHT22;3730;50.856;12.776;2023-07-09T23:16:21;26.00;1.00
7378;DHT22;3730;50.856;12.776;2023-07-09T23:18:47;25.90;1.00
7378;DHT22;3730;50.856;12.776;2023-07-09T23:21:14;25.90;1.00
7378;DHT22;3730;50.856;12.776;2023-07-09T23:23:40;25.90;1.00
7378;DHT22;3730;50.856;12.776;2023-07-09T23:26:10;25.90;1.00
7378;DHT22;3730;50.856;12.776;2023-07-09T23:28:35;25.90;1.00
7378;DHT22;3730;50.856;12.776;2023-07-09T23:31:02;25.90;1.00
7378;DHT22;3730;50.856;12.776;2023-07-09T23:33:30;25.80;1.00
7378;DHT22;3730;50.856;12.776;2023-07-09T23:35:57;25.80;1.00
7378;DHT22;3730;50.856;12.776;2023-07-09T23:38:24;25.80;1.00
7378;DHT22;3730;50.856;12.776;2023-07-09T23:40:52;25.80;1.00
7378;DHT22;3730;50.856;12.776;2023-07-09T23:43:19;25.80;1.00
7378;DHT22;3730;50.856;12.776;2023-07-09T23:45:45;25.80;1.00
7378;DHT22;3730;50.856;12.776;2023-07-09T23:48:23;25.80;1.00
7378;DHT22;3730;50.856;12.776;2023-07-09T23:50:55;25.80;1.00
7378;DHT22;3730;50.856;12.776;2023-07-09T23:53:28;25.80;1.00
7378;DHT22;3730;50.856;12.776;2023-07-09T23:55:56;25.80;1.00
7378;DHT22;3730;50.856;12.776;2023-07-09T23:58:25;25.80;1.00
